sensor_id;sensor_type;location;lat;lon;timestamp;P1;durP1;ratioP1;P2;durP2;ratioP2
75810;SDS011;64449;50.016;19.954;2022-12-08T00:01:21;2.50;;;1.10;;
75810;SDS011;64449;50.016;19.954;2022-12-08T00:03:48;4.30;;;2.10;;
75810;SDS011;64449;50.016;19.954;2022-12-08T00:09:01;3.20;;;1.70;;
75810;SDS011;64449;50.016;19.954;2022-12-08T00:11:46;3.00;;;1.40;;
75810;SDS011;64449;50.016;19.954;2022-12-08T00:14:12;4.00;;;1.50;;
75810;SDS011;64449;50.016;19.954;2022-12-08T00:16:37;3.40;;;1.50;;
75810;SDS011;64449;50.016;19.954;2022-12-08T00:19:03;1.80;;;0.80;;
75810;SDS011;64449;50.016;19.954;2022-12-08T00:23:54;3.20;;;1.40;;
75810;SDS011;64449;50.016;19.954;2022-12-08T00:26:20;3.40;;;1.80;;
75810;SDS011;64449;50.016;19.954;2022-12-08T00:28:45;4.40;;;1.20;;
75810;SDS011;64449;50.016;19.954;2022-12-08T00:31:11;2.10;;;0.80;;
75810;SDS011;64449;50.016;19.954;2022-12-08T00:33:37;3.40;;;1.40;;
75810;SDS011;64449;50.016;19.954;2022-12-08T00:38:36;3.20;;;1.20;;
75810;SDS011;64449;50.016;19.954;2022-12-08T00:41:02;3.20;;;1.10;;
75810;SDS011;64449;50.016;19.954;2022-12-08T00:43:31;2.30;;;0.90;;
75810;SDS011;64449;50.016;19.954;2022-12-08T00:45:56;4.00;;;1.50;;
75810;SDS011;64449;50.016;19.954;2022-12-08T00:50:47;4.10;;;1.80;;
75810;SDS011;64449;50.016;19.954;2022-12-08T00:55:37;3.40;;;1.50;;
75810;SDS011;64449;50.016;19.954;2022-12-08T01:00:28;3.00;;;1.00;;
75810;SDS011;64449;50.016;19.954;2022-12-08T01:05:19;2.50;;;1.20;;
75810;SDS011;64449;50.016;19.954;2022-12-08T01:07:44;3.50;;;1.30;;
75810;SDS011;64449;50.016;19.954;2022-12-08T01:10:10;2.30;;;1.30;;
75810;SDS011;64449;50.016;19.954;2022-12-08T01:15:00;3.60;;;1.30;;
75810;SDS011;64449;50.016;19.954;2022-12-08T01:19:51;4.50;;;1.50;;
75810;SDS011;64449;50.016;19.954;2022-12-08T01:24:41;3.80;;;1.80;;
75810;SDS011;64449;50.016;19.954;2022-12-08T01:27:07;4.40;;;1.40;;
75810;SDS011;64449;50.016;19.954;2022-12-08T01:31:58;4.80;;;1.90;;
75810;SDS011;64449;50.016;19.954;2022-12-08T01:36:49;5.10;;;1.80;;
75810;SDS011;64449;50.016;19.954;2022-12-08T01:41:41;3.90;;;1.60;;
75810;SDS011;64449;50.016;19.954;2022-12-08T01:46:35;3.30;;;1.60;;
75810;SDS011;64449;50.016;19.954;2022-12-08T01:51:50;3.30;;;1.60;;
75810;SDS011;64449;50.016;19.954;2022-12-08T01:54:21;3.10;;;1.50;;
75810;SDS011;64449;50.016;19.954;2022-12-08T01:57:01;2.50;;;1.40;;
75810;SDS011;64449;50.016;19.954;2022-12-08T01:59:33;4.10;;;1.90;;
75810;SDS011;64449;50.016;19.954;2022-12-08T02:02:02;5.70;;;2.50;;
75810;SDS011;64449;50.016;19.954;2022-12-08T02:06:53;3.40;;;1.10;;
75810;SDS011;64449;50.016;19.954;2022-12-08T02:09:19;3.80;;;2.00;;
75810;SDS011;64449;50.016;19.954;2022-12-08T02:11:46;2.50;;;1.20;;
75810;SDS011;64449;50.016;19.954;2022-12-08T02:14:12;2.40;;;1.00;;
75810;SDS011;64449;50.016;19.954;2022-12-08T02:38:31;3.30;;;1.40;;
75810;SDS011;64449;50.016;19.954;2022-12-08T02:46:30;5.10;;;1.70;;
75810;SDS011;64449;50.016;19.954;2022-12-08T02:48:59;4.40;;;1.70;;
75810;SDS011;64449;50.016;19.954;2022-12-08T02:51:26;1.60;;;1.00;;
75810;SDS011;64449;50.016;19.954;2022-12-08T03:09:37;3.50;;;1.60;;
75810;SDS011;64449;50.016;19.954;2022-12-08T03:15:02;3.20;;;1.50;;
75810;SDS011;64449;50.016;19.954;2022-12-08T03:17:33;3.90;;;1.70;;
75810;SDS011;64449;50.016;19.954;2022-12-08T03:20:02;2.90;;;1.70;;
75810;SDS011;64449;50.016;19.954;2022-12-08T03:22:31;4.40;;;2.10;;
75810;SDS011;64449;50.016;19.954;2022-12-08T03:24:57;4.60;;;2.00;;
75810;SDS011;64449;50.016;19.954;2022-12-08T03:27:23;4.00;;;2.10;;
75810;SDS011;64449;50.016;19.954;2022-12-08T03:29:53;4.70;;;2.20;;
75810;SDS011;64449;50.016;19.954;2022-12-08T03:34:51;3.50;;;2.10;;
75810;SDS011;64449;50.016;19.954;2022-12-08T03:37:18;3.30;;;1.80;;
75810;SDS011;64449;50.016;19.954;2022-12-08T03:39:44;4.20;;;2.30;;
75810;SDS011;64449;50.016;19.954;2022-12-08T03:42:10;5.70;;;2.60;;
75810;SDS011;64449;50.016;19.954;2022-12-08T03:44:35;3.70;;;1.80;;
75810;SDS011;64449;50.016;19.954;2022-12-08T03:49:26;5.70;;;2.00;;
75810;SDS011;64449;50.016;19.954;2022-12-08T03:54:17;3.40;;;1.20;;
75810;SDS011;64449;50.016;19.954;2022-12-08T03:59:07;3.80;;;1.80;;
75810;SDS011;64449;50.016;19.954;2022-12-08T04:01:34;4.40;;;2.60;;
75810;SDS011;64449;50.016;19.954;2022-12-08T04:06:24;3.50;;;1.80;;
75810;SDS011;64449;50.016;19.954;2022-12-08T04:11:16;5.00;;;2.00;;
75810;SDS011;64449;50.016;19.954;2022-12-08T04:13:42;2.50;;;1.30;;
75810;SDS011;64449;50.016;19.954;2022-12-08T04:16:12;4.00;;;2.10;;
75810;SDS011;64449;50.016;19.954;2022-12-08T04:18:43;3.10;;;1.70;;
75810;SDS011;64449;50.016;19.954;2022-12-08T04:21:09;3.50;;;1.50;;
75810;SDS011;64449;50.016;19.954;2022-12-08T04:23:34;4.40;;;1.90;;
75810;SDS011;64449;50.016;19.954;2022-12-08T04:26:00;3.70;;;2.10;;
75810;SDS011;64449;50.016;19.954;2022-12-08T04:30:53;3.70;;;1.90;;
75810;SDS011;64449;50.016;19.954;2022-12-08T04:33:19;4.40;;;2.20;;
75810;SDS011;64449;50.016;19.954;2022-12-08T04:38:09;2.30;;;1.10;;
75810;SDS011;64449;50.016;19.954;2022-12-08T04:40:35;2.90;;;1.40;;
75810;SDS011;64449;50.016;19.954;2022-12-08T04:43:00;5.30;;;2.40;;
75810;SDS011;64449;50.016;19.954;2022-12-08T04:47:51;3.00;;;1.30;;
75810;SDS011;64449;50.016;19.954;2022-12-08T04:52:42;4.50;;;2.00;;
75810;SDS011;64449;50.016;19.954;2022-12-08T04:57:32;3.60;;;1.50;;
75810;SDS011;64449;50.016;19.954;2022-12-08T04:59:58;2.60;;;1.30;;
75810;SDS011;64449;50.016;19.954;2022-12-08T05:04:49;4.90;;;1.90;;
75810;SDS011;64449;50.016;19.954;2022-12-08T05:09:39;4.60;;;2.00;;
75810;SDS011;64449;50.016;19.954;2022-12-08T05:14:30;3.60;;;1.40;;
75810;SDS011;64449;50.016;19.954;2022-12-08T05:19:21;4.00;;;1.80;;
75810;SDS011;64449;50.016;19.954;2022-12-08T05:21:46;5.30;;;2.10;;
75810;SDS011;64449;50.016;19.954;2022-12-08T05:24:12;5.90;;;1.90;;
75810;SDS011;64449;50.016;19.954;2022-12-08T05:26:37;4.00;;;2.30;;
75810;SDS011;64449;50.016;19.954;2022-12-08T05:31:28;3.70;;;2.00;;
75810;SDS011;64449;50.016;19.954;2022-12-08T05:33:53;4.70;;;2.60;;
75810;SDS011;64449;50.016;19.954;2022-12-08T05:38:44;5.60;;;2.20;;
75810;SDS011;64449;50.016;19.954;2022-12-08T05:41:14;3.70;;;2.20;;
75810;SDS011;64449;50.016;19.954;2022-12-08T05:43:44;4.30;;;2.20;;
75810;SDS011;64449;50.016;19.954;2022-12-08T05:46:10;4.70;;;2.50;;
75810;SDS011;64449;50.016;19.954;2022-12-08T05:48:36;5.60;;;2.10;;
75810;SDS011;64449;50.016;19.954;2022-12-08T05:51:02;3.90;;;2.10;;
75810;SDS011;64449;50.016;19.954;2022-12-08T05:53:28;7.60;;;1.90;;
75810;SDS011;64449;50.016;19.954;2022-12-08T05:55:53;3.50;;;1.60;;
75810;SDS011;64449;50.016;19.954;2022-12-08T06:00:45;5.10;;;1.70;;
75810;SDS011;64449;50.016;19.954;2022-12-08T06:03:12;3.80;;;2.20;;
75810;SDS011;64449;50.016;19.954;2022-12-08T06:05:39;2.90;;;1.50;;
75810;SDS011;64449;50.016;19.954;2022-12-08T06:08:06;4.60;;;2.50;;
75810;SDS011;64449;50.016;19.954;2022-12-08T06:10:31;6.00;;;3.00;;
75810;SDS011;64449;50.016;19.954;2022-12-08T06:12:57;5.10;;;2.70;;
75810;SDS011;64449;50.016;19.954;2022-12-08T06:17:47;5.10;;;2.50;;
75810;SDS011;64449;50.016;19.954;2022-12-08T06:22:38;6.90;;;2.80;;
75810;SDS011;64449;50.016;19.954;2022-12-08T06:27:29;5.20;;;2.20;;
75810;SDS011;64449;50.016;19.954;2022-12-08T06:32:20;5.60;;;2.80;;
75810;SDS011;64449;50.016;19.954;2022-12-08T06:34:45;5.80;;;2.90;;
75810;SDS011;64449;50.016;19.954;2022-12-08T06:39:36;4.80;;;2.40;;
75810;SDS011;64449;50.016;19.954;2022-12-08T06:44:45;5.10;;;2.30;;
75810;SDS011;64449;50.016;19.954;2022-12-08T06:47:11;5.00;;;2.30;;
75810;SDS011;64449;50.016;19.954;2022-12-08T06:49:37;6.40;;;2.80;;
75810;SDS011;64449;50.016;19.954;2022-12-08T06:54:28;4.30;;;2.50;;
75810;SDS011;64449;50.016;19.954;2022-12-08T06:59:18;4.40;;;1.90;;
75810;SDS011;64449;50.016;19.954;2022-12-08T07:04:09;4.70;;;2.60;;
75810;SDS011;64449;50.016;19.954;2022-12-08T07:06:35;5.40;;;2.40;;
75810;SDS011;64449;50.016;19.954;2022-12-08T07:09:00;5.80;;;2.40;;
75810;SDS011;64449;50.016;19.954;2022-12-08T07:13:51;7.40;;;3.20;;
75810;SDS011;64449;50.016;19.954;2022-12-08T07:16:17;5.30;;;3.00;;
75810;SDS011;64449;50.016;19.954;2022-12-08T07:18:42;4.80;;;2.60;;
75810;SDS011;64449;50.016;19.954;2022-12-08T07:21:09;5.90;;;2.70;;
75810;SDS011;64449;50.016;19.954;2022-12-08T07:23:36;5.00;;;2.30;;
75810;SDS011;64449;50.016;19.954;2022-12-08T07:26:02;5.10;;;2.70;;
75810;SDS011;64449;50.016;19.954;2022-12-08T07:28:30;6.90;;;2.90;;
75810;SDS011;64449;50.016;19.954;2022-12-08T07:30:57;5.10;;;2.60;;
75810;SDS011;64449;50.016;19.954;2022-12-08T07:33:22;4.20;;;2.60;;
75810;SDS011;64449;50.016;19.954;2022-12-08T07:35:58;5.00;;;2.20;;
75810;SDS011;64449;50.016;19.954;2022-12-08T07:38:25;5.00;;;2.00;;
75810;SDS011;64449;50.016;19.954;2022-12-08T07:40:51;6.10;;;2.90;;
75810;SDS011;64449;50.016;19.954;2022-12-08T07:43:17;5.10;;;2.80;;
75810;SDS011;64449;50.016;19.954;2022-12-08T07:45:42;5.20;;;2.40;;
75810;SDS011;64449;50.016;19.954;2022-12-08T07:48:08;3.30;;;1.30;;
75810;SDS011;64449;50.016;19.954;2022-12-08T07:50:33;5.20;;;2.40;;
75810;SDS011;64449;50.016;19.954;2022-12-08T07:52:59;4.20;;;2.30;;
75810;SDS011;64449;50.016;19.954;2022-12-08T07:55:24;5.70;;;2.90;;
75810;SDS011;64449;50.016;19.954;2022-12-08T07:57:50;2.90;;;1.40;;
75810;SDS011;64449;50.016;19.954;2022-12-08T08:00:15;8.60;;;2.60;;
75810;SDS011;64449;50.016;19.954;2022-12-08T08:02:41;4.60;;;2.40;;
75810;SDS011;64449;50.016;19.954;2022-12-08T08:05:07;5.70;;;2.70;;
75810;SDS011;64449;50.016;19.954;2022-12-08T08:07:33;4.90;;;2.20;;
75810;SDS011;64449;50.016;19.954;2022-12-08T08:09:58;6.40;;;2.80;;
75810;SDS011;64449;50.016;19.954;2022-12-08T08:12:25;4.30;;;1.80;;
75810;SDS011;64449;50.016;19.954;2022-12-08T08:17:15;5.80;;;2.60;;
75810;SDS011;64449;50.016;19.954;2022-12-08T08:19:41;4.90;;;2.30;;
75810;SDS011;64449;50.016;19.954;2022-12-08T08:22:06;4.20;;;2.20;;
75810;SDS011;64449;50.016;19.954;2022-12-08T08:24:31;6.30;;;2.80;;
75810;SDS011;64449;50.016;19.954;2022-12-08T08:26:57;3.80;;;2.40;;
75810;SDS011;64449;50.016;19.954;2022-12-08T08:31:48;7.90;;;3.40;;
75810;SDS011;64449;50.016;19.954;2022-12-08T08:34:14;8.20;;;3.30;;
75810;SDS011;64449;50.016;19.954;2022-12-08T08:36:39;4.40;;;1.80;;
75810;SDS011;64449;50.016;19.954;2022-12-08T08:39:05;4.60;;;2.50;;
75810;SDS011;64449;50.016;19.954;2022-12-08T08:41:30;5.20;;;2.10;;
75810;SDS011;64449;50.016;19.954;2022-12-08T08:43:56;5.30;;;2.70;;
75810;SDS011;64449;50.016;19.954;2022-12-08T08:46:21;5.50;;;3.20;;
75810;SDS011;64449;50.016;19.954;2022-12-08T08:48:47;8.10;;;2.80;;
75810;SDS011;64449;50.016;19.954;2022-12-08T08:51:13;5.60;;;2.90;;
75810;SDS011;64449;50.016;19.954;2022-12-08T08:53:38;6.30;;;2.80;;
75810;SDS011;64449;50.016;19.954;2022-12-08T08:56:09;4.60;;;1.80;;
75810;SDS011;64449;50.016;19.954;2022-12-08T08:58:35;5.90;;;2.40;;
75810;SDS011;64449;50.016;19.954;2022-12-08T09:01:01;2.70;;;1.10;;
75810;SDS011;64449;50.016;19.954;2022-12-08T09:03:26;5.00;;;2.60;;
75810;SDS011;64449;50.016;19.954;2022-12-08T09:05:51;5.50;;;2.70;;
75810;SDS011;64449;50.016;19.954;2022-12-08T09:08:17;6.20;;;3.10;;
75810;SDS011;64449;50.016;19.954;2022-12-08T09:10:42;7.50;;;3.40;;
75810;SDS011;64449;50.016;19.954;2022-12-08T09:13:08;4.50;;;2.50;;
75810;SDS011;64449;50.016;19.954;2022-12-08T09:15:33;5.40;;;3.00;;
75810;SDS011;64449;50.016;19.954;2022-12-08T09:17:58;5.10;;;2.70;;
75810;SDS011;64449;50.016;19.954;2022-12-08T09:20:24;4.90;;;2.90;;
75810;SDS011;64449;50.016;19.954;2022-12-08T09:22:50;4.70;;;2.30;;
75810;SDS011;64449;50.016;19.954;2022-12-08T09:25:15;7.00;;;3.00;;
75810;SDS011;64449;50.016;19.954;2022-12-08T09:27:40;7.80;;;3.40;;
75810;SDS011;64449;50.016;19.954;2022-12-08T09:30:06;6.80;;;3.00;;
75810;SDS011;64449;50.016;19.954;2022-12-08T09:32:32;7.60;;;3.80;;
75810;SDS011;64449;50.016;19.954;2022-12-08T09:34:58;5.70;;;3.00;;
75810;SDS011;64449;50.016;19.954;2022-12-08T09:37:23;7.10;;;3.20;;
75810;SDS011;64449;50.016;19.954;2022-12-08T09:39:49;8.90;;;3.90;;
75810;SDS011;64449;50.016;19.954;2022-12-08T09:42:14;5.60;;;2.60;;
75810;SDS011;64449;50.016;19.954;2022-12-08T09:45:11;8.20;;;4.10;;
75810;SDS011;64449;50.016;19.954;2022-12-08T09:47:38;8.10;;;3.80;;
75810;SDS011;64449;50.016;19.954;2022-12-08T09:50:18;5.70;;;3.20;;
75810;SDS011;64449;50.016;19.954;2022-12-08T09:52:49;6.70;;;4.00;;
75810;SDS011;64449;50.016;19.954;2022-12-08T09:55:48;6.60;;;2.90;;
75810;SDS011;64449;50.016;19.954;2022-12-08T09:58:20;4.90;;;2.70;;
75810;SDS011;64449;50.016;19.954;2022-12-08T10:00:53;8.60;;;3.50;;
75810;SDS011;64449;50.016;19.954;2022-12-08T10:03:19;5.70;;;2.80;;
75810;SDS011;64449;50.016;19.954;2022-12-08T10:05:53;7.80;;;3.20;;
75810;SDS011;64449;50.016;19.954;2022-12-08T10:08:28;7.10;;;3.70;;
75810;SDS011;64449;50.016;19.954;2022-12-08T10:11:06;8.10;;;3.50;;
75810;SDS011;64449;50.016;19.954;2022-12-08T10:18:59;3.10;;;1.50;;
75810;SDS011;64449;50.016;19.954;2022-12-08T10:21:34;4.70;;;2.20;;
75810;SDS011;64449;50.016;19.954;2022-12-08T10:24:04;6.00;;;3.20;;
75810;SDS011;64449;50.016;19.954;2022-12-08T10:26:37;4.90;;;2.20;;
75810;SDS011;64449;50.016;19.954;2022-12-08T10:29:03;8.20;;;3.80;;
75810;SDS011;64449;50.016;19.954;2022-12-08T10:31:30;7.20;;;3.80;;
75810;SDS011;64449;50.016;19.954;2022-12-08T10:33:57;8.00;;;3.80;;
75810;SDS011;64449;50.016;19.954;2022-12-08T10:36:55;6.10;;;2.50;;
75810;SDS011;64449;50.016;19.954;2022-12-08T10:39:38;6.50;;;3.50;;
75810;SDS011;64449;50.016;19.954;2022-12-08T10:44:48;6.70;;;3.20;;
75810;SDS011;64449;50.016;19.954;2022-12-08T10:47:19;6.30;;;3.50;;
75810;SDS011;64449;50.016;19.954;2022-12-08T10:49:46;5.90;;;3.40;;
75810;SDS011;64449;50.016;19.954;2022-12-08T10:52:21;8.00;;;4.00;;
75810;SDS011;64449;50.016;19.954;2022-12-08T10:54:51;8.90;;;4.20;;
75810;SDS011;64449;50.016;19.954;2022-12-08T10:57:21;6.70;;;3.70;;
75810;SDS011;64449;50.016;19.954;2022-12-08T10:59:47;8.00;;;4.80;;
75810;SDS011;64449;50.016;19.954;2022-12-08T11:02:19;7.30;;;3.80;;
75810;SDS011;64449;50.016;19.954;2022-12-08T11:04:44;9.30;;;4.70;;
75810;SDS011;64449;50.016;19.954;2022-12-08T11:07:10;4.90;;;2.40;;
75810;SDS011;64449;50.016;19.954;2022-12-08T11:09:47;5.80;;;3.00;;
75810;SDS011;64449;50.016;19.954;2022-12-08T11:12:18;7.70;;;3.90;;
75810;SDS011;64449;50.016;19.954;2022-12-08T11:19:38;9.30;;;3.50;;
75810;SDS011;64449;50.016;19.954;2022-12-08T11:25:17;8.70;;;3.30;;
75810;SDS011;64449;50.016;19.954;2022-12-08T11:27:49;6.50;;;3.40;;
75810;SDS011;64449;50.016;19.954;2022-12-08T11:30:20;8.50;;;4.00;;
75810;SDS011;64449;50.016;19.954;2022-12-08T11:32:48;7.90;;;4.10;;
75810;SDS011;64449;50.016;19.954;2022-12-08T11:35:30;6.80;;;3.30;;
75810;SDS011;64449;50.016;19.954;2022-12-08T11:38:10;9.90;;;4.60;;
75810;SDS011;64449;50.016;19.954;2022-12-08T11:40:41;8.10;;;3.50;;
75810;SDS011;64449;50.016;19.954;2022-12-08T11:45:51;9.10;;;4.00;;
75810;SDS011;64449;50.016;19.954;2022-12-08T11:48:52;10.60;;;4.70;;
75810;SDS011;64449;50.016;19.954;2022-12-08T11:56:33;8.60;;;4.30;;
75810;SDS011;64449;50.016;19.954;2022-12-08T11:59:07;7.50;;;4.00;;
75810;SDS011;64449;50.016;19.954;2022-12-08T12:01:39;7.80;;;4.00;;
75810;SDS011;64449;50.016;19.954;2022-12-08T12:12:08;8.40;;;4.50;;
75810;SDS011;64449;50.016;19.954;2022-12-08T12:20:20;10.10;;;5.70;;
75810;SDS011;64449;50.016;19.954;2022-12-08T12:22:52;9.90;;;5.10;;
75810;SDS011;64449;50.016;19.954;2022-12-08T12:25:24;11.30;;;5.40;;
75810;SDS011;64449;50.016;19.954;2022-12-08T12:27:51;8.90;;;5.20;;
75810;SDS011;64449;50.016;19.954;2022-12-08T12:30:22;6.90;;;4.10;;
75810;SDS011;64449;50.016;19.954;2022-12-08T12:33:00;14.00;;;7.70;;
75810;SDS011;64449;50.016;19.954;2022-12-08T12:37:54;10.10;;;5.30;;
75810;SDS011;64449;50.016;19.954;2022-12-08T12:40:23;10.90;;;5.50;;
75810;SDS011;64449;50.016;19.954;2022-12-08T12:47:46;6.70;;;4.00;;
75810;SDS011;64449;50.016;19.954;2022-12-08T12:56:16;9.40;;;4.60;;
75810;SDS011;64449;50.016;19.954;2022-12-08T12:58:37;13.50;;;7.30;;
75810;SDS011;64449;50.016;19.954;2022-12-08T13:03:34;8.80;;;4.40;;
75810;SDS011;64449;50.016;19.954;2022-12-08T13:06:01;10.60;;;6.10;;
75810;SDS011;64449;50.016;19.954;2022-12-08T13:08:27;9.30;;;4.80;;
75810;SDS011;64449;50.016;19.954;2022-12-08T13:13:34;8.10;;;4.60;;
75810;SDS011;64449;50.016;19.954;2022-12-08T13:16:04;9.80;;;5.10;;
75810;SDS011;64449;50.016;19.954;2022-12-08T13:19:03;7.10;;;3.80;;
75810;SDS011;64449;50.016;19.954;2022-12-08T13:21:36;6.70;;;3.80;;
75810;SDS011;64449;50.016;19.954;2022-12-08T13:26:42;9.20;;;3.70;;
75810;SDS011;64449;50.016;19.954;2022-12-08T13:31:44;7.70;;;4.20;;
75810;SDS011;64449;50.016;19.954;2022-12-08T13:36:39;7.60;;;4.00;;
75810;SDS011;64449;50.016;19.954;2022-12-08T13:39:55;8.60;;;4.20;;
75810;SDS011;64449;50.016;19.954;2022-12-08T13:45:04;11.20;;;4.70;;
75810;SDS011;64449;50.016;19.954;2022-12-08T13:47:39;8.20;;;4.70;;
75810;SDS011;64449;50.016;19.954;2022-12-08T13:50:13;9.20;;;4.60;;
75810;SDS011;64449;50.016;19.954;2022-12-08T13:53:03;7.50;;;4.40;;
75810;SDS011;64449;50.016;19.954;2022-12-08T13:58:01;7.30;;;4.90;;
75810;SDS011;64449;50.016;19.954;2022-12-08T14:00:26;7.90;;;4.70;;
75810;SDS011;64449;50.016;19.954;2022-12-08T14:02:54;8.80;;;4.70;;
75810;SDS011;64449;50.016;19.954;2022-12-08T14:05:21;7.50;;;4.30;;
75810;SDS011;64449;50.016;19.954;2022-12-08T14:07:50;9.20;;;4.80;;
75810;SDS011;64449;50.016;19.954;2022-12-08T14:10:22;9.50;;;5.20;;
75810;SDS011;64449;50.016;19.954;2022-12-08T14:12:52;9.20;;;5.00;;
75810;SDS011;64449;50.016;19.954;2022-12-08T14:15:21;9.10;;;5.10;;
75810;SDS011;64449;50.016;19.954;2022-12-08T14:17:53;9.60;;;5.00;;
75810;SDS011;64449;50.016;19.954;2022-12-08T14:20:25;10.10;;;5.40;;
75810;SDS011;64449;50.016;19.954;2022-12-08T14:22:52;8.40;;;4.60;;
75810;SDS011;64449;50.016;19.954;2022-12-08T14:25:18;9.20;;;4.90;;
75810;SDS011;64449;50.016;19.954;2022-12-08T14:27:44;8.80;;;4.70;;
75810;SDS011;64449;50.016;19.954;2022-12-08T14:32:48;9.40;;;5.10;;
75810;SDS011;64449;50.016;19.954;2022-12-08T14:37:51;9.70;;;5.10;;
75810;SDS011;64449;50.016;19.954;2022-12-08T14:40:32;9.00;;;5.20;;
75810;SDS011;64449;50.016;19.954;2022-12-08T14:48:17;7.50;;;4.20;;
75810;SDS011;64449;50.016;19.954;2022-12-08T14:59:13;8.50;;;5.00;;
75810;SDS011;64449;50.016;19.954;2022-12-08T15:01:42;10.40;;;5.00;;
75810;SDS011;64449;50.016;19.954;2022-12-08T15:06:36;10.70;;;5.80;;
75810;SDS011;64449;50.016;19.954;2022-12-08T15:09:24;10.00;;;5.50;;
75810;SDS011;64449;50.016;19.954;2022-12-08T15:12:02;8.80;;;5.30;;
75810;SDS011;64449;50.016;19.954;2022-12-08T15:14:32;9.30;;;5.00;;
75810;SDS011;64449;50.016;19.954;2022-12-08T15:17:00;10.40;;;5.60;;
75810;SDS011;64449;50.016;19.954;2022-12-08T15:21:54;9.50;;;5.40;;
75810;SDS011;64449;50.016;19.954;2022-12-08T15:24:23;9.40;;;5.30;;
75810;SDS011;64449;50.016;19.954;2022-12-08T15:26:50;9.90;;;5.50;;
75810;SDS011;64449;50.016;19.954;2022-12-08T15:31:54;10.10;;;5.80;;
75810;SDS011;64449;50.016;19.954;2022-12-08T15:34:21;10.60;;;5.70;;
75810;SDS011;64449;50.016;19.954;2022-12-08T15:36:51;8.10;;;4.60;;
75810;SDS011;64449;50.016;19.954;2022-12-08T15:41:55;8.60;;;4.90;;
75810;SDS011;64449;50.016;19.954;2022-12-08T15:44:20;10.20;;;5.40;;
75810;SDS011;64449;50.016;19.954;2022-12-08T15:46:47;11.10;;;5.00;;
75810;SDS011;64449;50.016;19.954;2022-12-08T15:49:17;10.70;;;5.30;;
75810;SDS011;64449;50.016;19.954;2022-12-08T15:51:44;12.10;;;5.80;;
75810;SDS011;64449;50.016;19.954;2022-12-08T15:54:10;9.20;;;5.70;;
75810;SDS011;64449;50.016;19.954;2022-12-08T15:56:37;11.00;;;6.50;;
75810;SDS011;64449;50.016;19.954;2022-12-08T15:59:11;8.50;;;5.60;;
75810;SDS011;64449;50.016;19.954;2022-12-08T16:01:40;8.90;;;5.00;;
75810;SDS011;64449;50.016;19.954;2022-12-08T16:04:06;9.50;;;5.60;;
75810;SDS011;64449;50.016;19.954;2022-12-08T16:06:32;11.20;;;5.60;;
75810;SDS011;64449;50.016;19.954;2022-12-08T16:08:57;9.50;;;5.80;;
75810;SDS011;64449;50.016;19.954;2022-12-08T16:11:23;10.00;;;5.80;;
75810;SDS011;64449;50.016;19.954;2022-12-08T16:14:07;11.20;;;5.20;;
75810;SDS011;64449;50.016;19.954;2022-12-08T16:16:32;14.10;;;7.00;;
75810;SDS011;64449;50.016;19.954;2022-12-08T16:18:57;12.10;;;6.50;;
75810;SDS011;64449;50.016;19.954;2022-12-08T16:21:23;11.50;;;6.00;;
75810;SDS011;64449;50.016;19.954;2022-12-08T16:23:50;11.20;;;6.30;;
75810;SDS011;64449;50.016;19.954;2022-12-08T16:26:16;11.60;;;6.20;;
75810;SDS011;64449;50.016;19.954;2022-12-08T16:28:44;12.40;;;6.70;;
75810;SDS011;64449;50.016;19.954;2022-12-08T16:31:12;13.00;;;7.10;;
75810;SDS011;64449;50.016;19.954;2022-12-08T16:33:38;13.40;;;7.70;;
75810;SDS011;64449;50.016;19.954;2022-12-08T16:36:04;13.90;;;7.80;;
75810;SDS011;64449;50.016;19.954;2022-12-08T16:38:30;15.40;;;7.60;;
75810;SDS011;64449;50.016;19.954;2022-12-08T16:40:55;15.50;;;7.90;;
75810;SDS011;64449;50.016;19.954;2022-12-08T16:43:39;12.80;;;7.10;;
75810;SDS011;64449;50.016;19.954;2022-12-08T16:46:05;14.70;;;8.00;;
75810;SDS011;64449;50.016;19.954;2022-12-08T16:48:30;13.80;;;8.30;;
75810;SDS011;64449;50.016;19.954;2022-12-08T16:50:56;15.30;;;8.80;;
75810;SDS011;64449;50.016;19.954;2022-12-08T16:53:21;11.20;;;7.00;;
75810;SDS011;64449;50.016;19.954;2022-12-08T16:55:47;13.80;;;8.10;;
75810;SDS011;64449;50.016;19.954;2022-12-08T16:58:14;14.90;;;8.40;;
75810;SDS011;64449;50.016;19.954;2022-12-08T17:00:42;15.00;;;8.10;;
75810;SDS011;64449;50.016;19.954;2022-12-08T17:03:09;13.30;;;6.90;;
75810;SDS011;64449;50.016;19.954;2022-12-08T17:05:38;15.20;;;7.30;;
75810;SDS011;64449;50.016;19.954;2022-12-08T17:08:05;11.60;;;6.80;;
75810;SDS011;64449;50.016;19.954;2022-12-08T17:10:31;15.10;;;8.20;;
75810;SDS011;64449;50.016;19.954;2022-12-08T17:12:59;14.60;;;7.30;;
75810;SDS011;64449;50.016;19.954;2022-12-08T17:15:25;13.70;;;8.00;;
75810;SDS011;64449;50.016;19.954;2022-12-08T17:17:50;14.30;;;7.90;;
75810;SDS011;64449;50.016;19.954;2022-12-08T17:20:19;11.30;;;6.80;;
75810;SDS011;64449;50.016;19.954;2022-12-08T17:22:46;13.40;;;7.50;;
75810;SDS011;64449;50.016;19.954;2022-12-08T17:25:12;17.20;;;7.30;;
75810;SDS011;64449;50.016;19.954;2022-12-08T17:27:38;14.50;;;7.70;;
75810;SDS011;64449;50.016;19.954;2022-12-08T17:30:05;16.50;;;8.50;;
75810;SDS011;64449;50.016;19.954;2022-12-08T17:32:32;16.40;;;8.50;;
75810;SDS011;64449;50.016;19.954;2022-12-08T17:34:57;18.70;;;10.10;;
75810;SDS011;64449;50.016;19.954;2022-12-08T17:37:23;18.70;;;9.30;;
75810;SDS011;64449;50.016;19.954;2022-12-08T17:39:48;20.00;;;10.30;;
75810;SDS011;64449;50.016;19.954;2022-12-08T17:42:13;21.50;;;10.20;;
75810;SDS011;64449;50.016;19.954;2022-12-08T17:44:39;21.70;;;10.30;;
75810;SDS011;64449;50.016;19.954;2022-12-08T17:47:04;17.80;;;10.20;;
75810;SDS011;64449;50.016;19.954;2022-12-08T17:49:30;20.20;;;10.70;;
75810;SDS011;64449;50.016;19.954;2022-12-08T17:52:01;17.80;;;9.60;;
75810;SDS011;64449;50.016;19.954;2022-12-08T17:56:54;18.30;;;9.30;;
75810;SDS011;64449;50.016;19.954;2022-12-08T17:59:22;16.20;;;8.60;;
75810;SDS011;64449;50.016;19.954;2022-12-08T18:01:48;13.90;;;6.70;;
75810;SDS011;64449;50.016;19.954;2022-12-08T18:04:16;16.00;;;7.00;;
75810;SDS011;64449;50.016;19.954;2022-12-08T18:06:41;16.40;;;8.40;;
75810;SDS011;64449;50.016;19.954;2022-12-08T18:09:06;11.50;;;5.50;;
75810;SDS011;64449;50.016;19.954;2022-12-08T18:11:33;13.60;;;7.40;;
75810;SDS011;64449;50.016;19.954;2022-12-08T18:14:00;14.00;;;7.00;;
75810;SDS011;64449;50.016;19.954;2022-12-08T18:16:34;13.30;;;6.80;;
75810;SDS011;64449;50.016;19.954;2022-12-08T18:19:05;9.80;;;5.50;;
75810;SDS011;64449;50.016;19.954;2022-12-08T18:21:31;10.90;;;5.70;;
75810;SDS011;64449;50.016;19.954;2022-12-08T18:23:57;9.80;;;4.40;;
75810;SDS011;64449;50.016;19.954;2022-12-08T18:26:22;12.40;;;6.10;;
75810;SDS011;64449;50.016;19.954;2022-12-08T18:28:48;11.10;;;5.30;;
75810;SDS011;64449;50.016;19.954;2022-12-08T18:31:14;13.20;;;7.10;;
75810;SDS011;64449;50.016;19.954;2022-12-08T18:33:42;11.90;;;5.70;;
75810;SDS011;64449;50.016;19.954;2022-12-08T18:36:09;6.10;;;3.10;;
75810;SDS011;64449;50.016;19.954;2022-12-08T18:38:36;11.50;;;5.70;;
75810;SDS011;64449;50.016;19.954;2022-12-08T18:41:06;8.60;;;3.90;;
75810;SDS011;64449;50.016;19.954;2022-12-08T18:43:33;12.10;;;5.50;;
75810;SDS011;64449;50.016;19.954;2022-12-08T18:45:59;7.30;;;3.50;;
75810;SDS011;64449;50.016;19.954;2022-12-08T18:48:26;8.90;;;3.60;;
75810;SDS011;64449;50.016;19.954;2022-12-08T18:50:51;10.30;;;4.90;;
75810;SDS011;64449;50.016;19.954;2022-12-08T18:55:42;8.90;;;3.90;;
75810;SDS011;64449;50.016;19.954;2022-12-08T18:58:07;9.60;;;4.20;;